Time;durP1;ratioP1;P1;durP2;ratioP2;P2;SDS_P1;SDS_P2;PMS_P1;PMS_P2;Temp;Humidity;BMP_temperature;BMP_pressure;BME280_temperature;BME280_humidity;BME280_pressure;Samples;Min_cycle;Max_cycle;Signal;HPM_P1;HPM_P2
2022/10/14 00:01:00;;;;;;;;;;;;;;;8.54;64.44;99881.45;1740886;82;20429;-73
2022/10/14 00:03:27;;;;;;;;;;;;;;;8.50;64.48;99874.75;1740490;82;20408;-71
2022/10/14 00:05:54;;;;;;;;;;;;;;;8.49;64.56;99873.59;1740063;82;20083;-73
2022/10/14 00:08:20;;;;;;;;;;;;;;;8.45;64.65;99871.72;1740055;82;21813;-73
2022/10/14 00:10:48;;;;;;;;;;;;;;;8.44;64.72;99866.57;1739740;82;20119;-72
2022/10/14 00:13:15;;;;;;;;;;;;;;;8.44;64.75;99867.90;1739846;82;20127;-72
2022/10/14 00:15:41;;;;;;;;;;;;;;;8.42;64.71;99862.72;1739998;82;20114;-73
2022/10/14 00:18:09;;;;;;;;;;;;;;;8.42;64.71;99859.27;1735491;82;20163;-73
2022/10/14 00:20:35;;;;;;;;;;;;;;;8.40;64.68;99861.20;1704239;82;21226;-73
2022/10/14 00:23:01;;;;;;;;;;;;;;;8.38;64.74;99861.36;1727638;82;20202;-73
2022/10/14 00:25:28;;;;;;;;;;;;;;;8.38;64.72;99857.88;1704109;84;20463;-72
2022/10/14 00:27:55;;;;;;;;;;;;;;;8.34;64.81;99854.66;1724860;82;20415;-73
2022/10/14 00:30:21;;;;;;;;;;;;;;;8.30;64.89;99853.31;1732074;82;20157;-73
2022/10/14 00:32:47;;;;;;;;;;;;;;;8.27;65.00;99848.78;1719023;82;21131;-73
2022/10/14 00:35:13;;;;;;;;;;;;;;;8.23;65.11;99842.08;1695744;83;20138;-72
2022/10/14 00:37:40;;;;;;;;;;;;;;;8.20;65.26;99843.21;1716246;82;20083;-73
2022/10/14 00:40:07;;;;;;;;;;;;;;;8.18;65.36;99841.20;1704653;82;20147;-73
2022/10/14 00:42:35;;;;;;;;;;;;;;;8.17;65.47;99837.36;1711562;82;20086;-73
2022/10/14 00:45:07;;;;;;;;;;;;;;;8.13;65.55;99838.16;1732865;82;21142;-71
2022/10/14 00:47:35;;;;;;;;;;;;;;;8.11;65.63;99832.66;1731459;82;20119;-73
2022/10/14 00:50:02;;;;;;;;;;;;;;;8.07;65.77;99832.95;1724877;82;20169;-73
2022/10/14 00:52:29;;;;;;;;;;;;;;;8.04;65.92;99830.59;1704113;82;20159;-72
2022/10/14 00:55:07;;;;;;;;;;;;;;;8.03;66.03;99828.91;1695051;83;20163;-71
2022/10/14 00:57:34;;;;;;;;;;;;;;;8.02;66.13;99828.58;1713126;82;21810;-73
2022/10/14 01:00:07;;;;;;;;;;;;;;;8.02;66.22;99832.55;1696727;82;20079;-73
2022/10/14 01:02:34;;;;;;;;;;;;;;;8.01;66.27;99832.68;1714455;82;20172;-72
2022/10/14 01:05:00;;;;;;;;;;;;;;;7.99;66.36;99822.72;1697798;82;20449;-72
2022/10/14 01:07:43;;;;;;;;;;;;;;;7.97;66.38;99825.53;1722919;82;20130;-72
2022/10/14 01:10:17;;;;;;;;;;;;;;;7.93;66.49;99822.81;1734993;82;21900;-71
2022/10/14 01:13:03;;;;;;;;;;;;;;;7.90;66.64;99818.31;1722935;82;20492;-71
2022/10/14 01:15:47;;;;;;;;;;;;;;;7.87;66.79;99813.30;1678794;85;20481;-71
2022/10/14 01:18:34;;;;;;;;;;;;;;;7.85;66.93;99809.94;1680340;84;20114;-72
2022/10/14 01:21:15;;;;;;;;;;;;;;;7.82;67.09;99815.55;1709138;83;20098;-73
2022/10/14 01:23:54;;;;;;;;;;;;;;;7.78;67.22;99810.18;1678076;84;21133;-73
2022/10/14 01:26:43;;;;;;;;;;;;;;;7.75;67.33;99809.98;1704354;83;20160;-72
2022/10/14 01:29:47;;;;;;;;;;;;;;;7.71;67.48;99808.61;1713687;83;20120;-70
2022/10/14 01:32:16;;;;;;;;;;;;;;;7.64;67.72;99809.34;1699787;84;20106;-72
2022/10/14 01:34:46;;;;;;;;;;;;;;;7.59;68.00;99812.39;1687655;84;20110;-72
2022/10/14 01:37:15;;;;;;;;;;;;;;;7.58;68.20;99813.39;1713942;83;21793;-73
2022/10/14 01:39:44;;;;;;;;;;;;;;;7.58;68.39;99810.74;1686912;83;20115;-72
2022/10/14 01:42:15;;;;;;;;;;;;;;;7.58;68.53;99807.25;1702157;83;20145;-72
2022/10/14 01:44:46;;;;;;;;;;;;;;;7.58;68.65;99809.90;1709641;83;20467;-72
2022/10/14 01:47:13;;;;;;;;;;;;;;;7.55;68.80;99804.41;1704420;83;20116;-73
2022/10/14 01:49:44;;;;;;;;;;;;;;;7.55;68.94;99808.38;1704309;83;21882;-71
2022/10/14 01:52:21;;;;;;;;;;;;;;;7.53;69.04;99804.20;1714053;83;20114;-71
2022/10/14 01:54:50;;;;;;;;;;;;;;;7.51;69.17;99809.63;1688380;83;20435;-73
2022/10/14 01:57:19;;;;;;;;;;;;;;;7.46;69.32;99809.22;1693921;83;20118;-73
2022/10/14 01:59:45;;;;;;;;;;;;;;;7.45;69.40;99804.44;1685623;85;20113;-73
2022/10/14 02:02:12;;;;;;;;;;;;;;;7.44;69.46;99804.56;1685447;85;21238;-73
2022/10/14 02:04:40;;;;;;;;;;;;;;;7.41;69.56;99800.38;1681724;85;20452;-73
2022/10/14 02:07:17;;;;;;;;;;;;;;;7.39;69.65;99796.21;1684651;84;20450;-71
2022/10/14 02:10:08;;;;;;;;;;;;;;;7.37;69.74;99797.69;1658615;85;20232;-72
2022/10/14 02:12:41;;;;;;;;;;;;;;;7.37;69.82;99801.66;1683571;84;20450;-70
2022/10/14 02:15:17;;;;;;;;;;;;;;;7.38;69.90;99800.67;1683954;84;21751;-71
2022/10/14 02:18:06;;;;;;;;;;;;;;;7.39;69.86;99801.03;1703790;83;20130;-71
2022/10/14 02:20:40;;;;;;;;;;;;;;;7.41;69.82;99802.19;1693917;83;20116;-72
2022/10/14 02:23:10;;;;;;;;;;;;;;;7.39;69.77;99799.70;1714054;83;20438;-72
2022/10/14 02:25:38;;;;;;;;;;;;;;;7.37;69.82;99797.69;1694336;83;20141;-73
2022/10/14 02:28:07;;;;;;;;;;;;;;;7.37;69.89;99796.84;1696141;83;21927;-71
2022/10/14 02:30:39;;;;;;;;;;;;;;;7.36;69.95;99797.33;1696086;83;20152;-70
2022/10/14 02:33:05;;;;;;;;;;;;;;;7.35;69.97;99793.52;1694670;83;20143;-71
2022/10/14 02:35:31;;;;;;;;;;;;;;;7.34;70.05;99793.16;1703811;83;20427;-73
2022/10/14 02:37:57;;;;;;;;;;;;;;;7.34;70.05;99793.16;1712823;83;20426;-73
2022/10/14 02:40:38;;;;;;;;;;;;;;;7.32;70.08;99788.02;1699251;83;21232;-73
2022/10/14 02:43:08;;;;;;;;;;;;;;;7.32;70.11;99785.38;1695571;83;20110;-73
2022/10/14 02:45:33;;;;;;;;;;;;;;;7.33;70.17;99787.51;1685257;85;20106;-72
2022/10/14 02:48:01;;;;;;;;;;;;;;;7.31;70.19;99794.77;1688193;84;20421;-72
2022/10/14 02:50:27;;;;;;;;;;;;;;;7.28;70.23;99787.10;1699501;83;20468;-72
2022/10/14 02:52:53;;;;;;;;;;;;;;;7.25;70.29;99791.35;1708179;83;21242;-71
2022/10/14 02:55:20;;;;;;;;;;;;;;;7.23;70.35;99791.50;1699759;83;20448;-71
2022/10/14 02:57:46;;;;;;;;;;;;;;;7.22;70.40;99788.50;1683767;84;20398;-70
2022/10/14 03:00:13;;;;;;;;;;;;;;;7.21;70.47;99792.14;1714096;83;20111;-72
2022/10/14 03:02:41;;;;;;;;;;;;;;;7.20;70.56;99788.30;1700015;83;20087;-72
2022/10/14 03:05:08;;;;;;;;;;;;;;;7.20;70.64;99786.48;1714163;83;21239;-71
2022/10/14 03:07:35;;;;;;;;;;;;;;;7.22;70.69;99787.69;1685757;84;20169;-71
2022/10/14 03:10:05;;;;;;;;;;;;;;;7.22;70.68;99781.88;1692199;84;20424;-70
2022/10/14 03:12:33;;;;;;;;;;;;;;;7.23;70.68;99786.70;1702471;83;20446;-71
2022/10/14 03:15:00;;;;;;;;;;;;;;;7.22;70.67;99782.39;1685456;85;20106;-70
2022/10/14 03:17:27;;;;;;;;;;;;;;;7.21;70.66;99789.50;1702419;83;21627;-71
2022/10/14 03:19:58;;;;;;;;;;;;;;;7.20;70.64;99787.81;1707660;83;20440;-71
2022/10/14 03:22:25;;;;;;;;;;;;;;;7.19;70.63;99790.61;1711401;83;20118;-70
2022/10/14 03:24:51;;;;;;;;;;;;;;;7.17;70.62;99788.61;1701241;84;20087;-72
2022/10/14 03:27:22;;;;;;;;;;;;;;;7.15;70.61;99790.05;1680643;84;20121;-72
2022/10/14 03:29:50;;;;;;;;;;;;;;;7.16;70.56;99789.56;1701092;84;21264;-72
2022/10/14 03:32:19;;;;;;;;;;;;;;;7.15;70.52;99791.86;1681140;84;20098;-72
2022/10/14 03:34:47;;;;;;;;;;;;;;;7.13;70.48;99793.81;1694518;84;20091;-72
2022/10/14 03:37:15;;;;;;;;;;;;;;;7.12;70.40;99795.62;1683295;84;20208;-73
2022/10/14 03:39:43;;;;;;;;;;;;;;;7.10;70.36;99790.96;1672436;84;20086;-71
2022/10/14 03:42:11;;;;;;;;;;;;;;;7.09;70.31;99793.77;1692447;83;21959;-72
2022/10/14 03:44:39;;;;;;;;;;;;;;;7.08;70.29;99797.37;1711281;83;20073;-73
2022/10/14 03:47:07;;;;;;;;;;;;;;;7.07;70.27;99793.04;1713998;83;20436;-71
2022/10/14 03:49:34;;;;;;;;;;;;;;;7.05;70.22;99794.52;1695049;83;20127;-72
2022/10/14 03:52:03;;;;;;;;;;;;;;;7.05;70.24;99797.16;1711204;83;20217;-72
2022/10/14 03:54:31;;;;;;;;;;;;;;;7.02;70.24;99796.12;1695185;84;20640;-71
2022/10/14 03:56:58;;;;;;;;;;;;;;;7.03;70.21;99795.16;1669400;84;20435;-72
2022/10/14 03:59:24;;;;;;;;;;;;;;;7.01;70.14;99789.17;1723984;82;20200;-72
2022/10/14 04:01:51;;;;;;;;;;;;;;;6.98;70.13;99791.25;1712089;83;20577;-71
2022/10/14 04:04:22;;;;;;;;;;;;;;;6.95;70.16;99793.69;1701158;84;20153;-72
2022/10/14 04:06:49;;;;;;;;;;;;;;;6.92;70.17;99787.84;1681093;84;20549;-72
2022/10/14 04:09:17;;;;;;;;;;;;;;;6.87;70.16;99785.62;1681892;84;20126;-73
2022/10/14 04:11:44;;;;;;;;;;;;;;;6.84;70.24;99790.70;1672999;84;20114;-71
2022/10/14 04:14:13;;;;;;;;;;;;;;;6.83;70.23;99785.53;1690440;84;20085;-72
2022/10/14 04:16:43;;;;;;;;;;;;;;;6.81;70.23;99788.33;1672616;84;20101;-70
2022/10/14 04:19:11;;;;;;;;;;;;;;;6.80;70.26;99788.48;1700842;83;21185;-72
2022/10/14 04:21:39;;;;;;;;;;;;;;;6.78;70.29;99789.08;1664260;86;20088;-72
2022/10/14 04:24:06;;;;;;;;;;;;;;;6.77;70.31;99783.46;1665796;86;20112;-71
2022/10/14 04:26:44;;;;;;;;;;;;;;;6.73;70.39;99781.57;1667156;86;20158;-73
2022/10/14 04:29:12;;;;;;;;;;;;;;;6.69;70.48;99780.19;1662180;86;20193;-73
2022/10/14 04:31:41;;;;;;;;;;;;;;;6.66;70.58;99780.95;1666537;86;21287;-71
2022/10/14 04:34:09;;;;;;;;;;;;;;;6.66;70.66;99783.59;1668296;86;20137;-73
2022/10/14 04:36:37;;;;;;;;;;;;;;;6.64;70.69;99778.94;1666081;85;20579;-71
2022/10/14 04:39:05;;;;;;;;;;;;;;;6.64;70.75;99778.45;1665057;86;20116;-72
2022/10/14 04:41:31;;;;;;;;;;;;;;;6.63;70.79;99779.41;1667437;86;20135;-72
2022/10/14 04:43:59;;;;;;;;;;;;;;;6.64;70.81;99774.48;1667320;86;21138;-71
2022/10/14 04:46:33;;;;;;;;;;;;;;;6.65;70.78;99776.61;1665263;86;20178;-71
2022/10/14 04:49:00;;;;;;;;;;;;;;;6.64;70.84;99769.67;1664899;85;20127;-73
2022/10/14 04:51:28;;;;;;;;;;;;;;;6.63;70.88;99770.64;1665120;86;20100;-71
2022/10/14 04:53:56;;;;;;;;;;;;;;;6.63;70.88;99769.31;1662434;86;20123;-72
2022/10/14 04:56:35;;;;;;;;;;;;;;;6.63;70.93;99766.19;1639707;86;20729;-72
2022/10/14 04:59:02;;;;;;;;;;;;;;;6.63;70.96;99768.00;1661292;86;20175;-72
2022/10/14 05:01:34;;;;;;;;;;;;;;;6.62;71.01;99761.06;1633022;86;20163;-71
2022/10/14 05:04:00;;;;;;;;;;;;;;;6.63;71.08;99756.94;1667350;86;20155;-71
2022/10/14 05:06:29;;;;;;;;;;;;;;;6.66;71.07;99755.83;1667153;86;20090;-71
2022/10/14 05:08:55;;;;;;;;;;;;;;;6.67;71.04;99750.91;1663955;86;21600;-72
2022/10/14 05:11:23;;;;;;;;;;;;;;;6.66;71.05;99747.41;1664390;86;20439;-71
2022/10/14 05:13:53;;;;;;;;;;;;;;;6.65;71.05;99745.73;1662859;86;20123;-72
2022/10/14 05:16:21;;;;;;;;;;;;;;;6.64;71.06;99747.20;1667154;86;20157;-72
2022/10/14 05:18:48;;;;;;;;;;;;;;;6.65;71.08;99746.21;1667283;86;20117;-72
2022/10/14 05:21:14;;;;;;;;;;;;;;;6.66;71.15;99755.83;1686309;84;21796;-73
2022/10/14 05:23:44;;;;;;;;;;;;;;;6.71;71.22;99745.67;1662002;85;20182;-73
2022/10/14 05:26:10;;;;;;;;;;;;;;;6.90;71.38;99754.09;1665255;85;20439;-74
2022/10/14 05:28:37;;;;;;;;;;;;;;;7.16;71.44;99759.98;1690112;84;20130;-69
2022/10/14 05:31:04;;;;;;;;;;;;;;;7.52;71.27;99762.80;1678833;83;20466;-69
2022/10/14 05:33:33;;;;;;;;;;;;;;;7.89;70.69;99761.00;1689472;83;21893;-69
2022/10/14 05:36:00;;;;;;;;;;;;;;;8.29;69.90;99754.06;1695025;84;20137;-70
2022/10/14 05:38:32;;;;;;;;;;;;;;;8.71;68.99;99758.31;1692035;84;20178;-69
2022/10/14 05:40:59;;;;;;;;;;;;;;;9.13;67.80;99756.17;1672557;84;20088;-69
2022/10/14 05:43:26;;;;;;;;;;;;;;;9.53;66.46;99752.97;1695612;83;20087;-69
2022/10/14 05:45:53;;;;;;;;;;;;;;;9.92;65.33;99750.19;1668304;84;21159;-70
2022/10/14 05:48:21;;;;;;;;;;;;;;;10.31;64.02;99753.67;1686446;83;20097;-68
2022/10/14 05:50:50;;;;;;;;;;;;;;;10.70;63.07;99757.41;1662811;83;20173;-69
2022/10/14 05:53:18;;;;;;;;;;;;;;;11.13;61.84;99756.29;1682177;85;20159;-69
2022/10/14 05:55:47;;;;;;;;;;;;;;;11.54;60.58;99758.39;1662796;83;20090;-71
2022/10/14 05:58:13;;;;;;;;;;;;;;;11.94;59.30;99760.96;1682882;83;21188;-69
2022/10/14 06:00:41;;;;;;;;;;;;;;;12.32;58.23;99761.48;1682579;83;20086;-68
2022/10/14 06:03:10;;;;;;;;;;;;;;;12.72;57.20;99758.25;1663098;85;20179;-71
2022/10/14 06:05:37;;;;;;;;;;;;;;;12.97;55.86;99754.38;1667424;83;20138;-68
2022/10/14 06:08:05;;;;;;;;;;;;;;;13.14;54.96;99752.45;1680486;85;20129;-68
2022/10/14 06:10:35;;;;;;;;;;;;;;;13.32;54.61;99743.61;1692784;83;20595;-70
2022/10/14 06:13:02;;;;;;;;;;;;;;;13.59;54.01;99745.66;1679076;83;20479;-71
2022/10/14 06:15:28;;;;;;;;;;;;;;;13.83;52.89;99742.73;1692471;83;20264;-69
2022/10/14 06:17:55;;;;;;;;;;;;;;;14.01;52.09;99740.50;1663028;85;20094;-69
2022/10/14 06:20:21;;;;;;;;;;;;;;;14.19;51.59;99734.75;1692106;84;20215;-69
2022/10/14 06:22:48;;;;;;;;;;;;;;;14.39;50.91;99730.49;1682602;84;22068;-74
2022/10/14 06:25:15;;;;;;;;;;;;;;;14.59;50.12;99725.38;1684306;84;20124;-74
2022/10/14 06:27:41;;;;;;;;;;;;;;;14.72;49.97;99724.17;1671122;85;20118;-71
2022/10/14 06:30:09;;;;;;;;;;;;;;;14.93;49.19;99722.00;1655110;85;20118;-71
2022/10/14 06:32:36;;;;;;;;;;;;;;;15.12;48.68;99713.32;1664009;84;20128;-67
2022/10/14 06:35:02;;;;;;;;;;;;;;;15.39;48.45;99709.30;1665061;84;21141;-69
2022/10/14 06:37:28;;;;;;;;;;;;;;;15.70;47.63;99714.77;1658864;84;20090;-69
2022/10/14 06:39:55;;;;;;;;;;;;;;;15.94;46.89;99709.77;1660663;84;20086;-69
2022/10/14 06:42:23;;;;;;;;;;;;;;;16.19;46.46;99710.06;1667534;85;20139;-67
2022/10/14 06:44:50;;;;;;;;;;;;;;;16.33;46.06;99713.63;1676749;84;20430;-70
2022/10/14 06:47:17;;;;;;;;;;;;;;;16.55;45.44;99701.77;1662078;84;22066;-73
2022/10/14 06:49:44;;;;;;;;;;;;;;;16.70;44.75;99706.44;1663775;85;20119;-69
2022/10/14 06:52:10;;;;;;;;;;;;;;;16.87;44.41;99722.46;1655060;84;20102;-70
2022/10/14 06:54:37;;;;;;;;;;;;;;;16.96;43.99;99706.98;1669168;84;20088;-71
2022/10/14 06:57:03;;;;;;;;;;;;;;;17.06;43.59;99706.05;1657833;85;20138;-71
2022/10/14 06:59:29;;;;;;;;;;;;;;;17.13;43.29;99708.22;1655012;85;21149;-72
2022/10/14 07:01:56;;;;;;;;;;;;;;;17.08;43.12;99708.84;1654891;84;20126;-72
2022/10/14 07:04:22;;;;;;;;;;;;;;;17.00;42.98;99696.12;1665627;84;20119;-73
2022/10/14 07:06:50;;;;;;;;;;;;;;;17.03;43.42;99697.05;1664629;84;20123;-72
2022/10/14 07:09:18;;;;;;;;;;;;;;;17.06;42.96;99698.82;1654997;84;20090;-72
2022/10/14 07:11:46;;;;;;;;;;;;;;;17.04;42.96;99699.55;1654903;84;20127;-75
2022/10/14 07:14:13;;;;;;;;;;;;;;;16.98;43.45;99699.02;1668205;84;20106;-73
2022/10/14 07:16:44;;;;;;;;;;;;;;;17.05;43.59;99702.53;1677603;85;20087;-75
2022/10/14 07:19:10;;;;;;;;;;;;;;;17.25;43.39;99711.45;1678071;84;20102;-74
2022/10/14 07:21:38;;;;;;;;;;;;;;;17.46;42.91;99707.70;1661185;85;20098;-74
2022/10/14 07:24:05;;;;;;;;;;;;;;;17.55;42.82;99719.08;1681891;85;21319;-74
2022/10/14 07:26:31;;;;;;;;;;;;;;;17.67;42.36;99712.88;1705225;84;20098;-76
2022/10/14 07:28:58;;;;;;;;;;;;;;;17.81;42.51;99720.38;1680441;84;20432;-71
2022/10/14 07:31:25;;;;;;;;;;;;;;;17.95;42.63;99717.97;1682999;85;20448;-71
2022/10/14 07:33:51;;;;;;;;;;;;;;;18.15;42.10;99721.41;1691247;84;20439;-72
2022/10/14 07:36:17;;;;;;;;;;;;;;;18.38;42.00;99718.22;1672801;84;21737;-77
2022/10/14 07:38:44;;;;;;;;;;;;;;;18.65;41.23;99718.91;1686205;84;20117;-76
2022/10/14 07:41:15;;;;;;;;;;;;;;;18.91;40.95;99717.40;1699632;84;20122;-75
2022/10/14 07:43:50;;;;;;;;;;;;;;;19.14;40.13;99711.44;1701022;84;20132;-75
2022/10/14 07:46:27;;;;;;;;;;;;;;;19.28;39.69;99712.45;1681074;85;20126;-74
2022/10/14 07:48:46;;;;;;;;;;;;;;;19.45;39.27;99712.75;1662742;84;21160;-75
2022/10/14 07:51:12;;;;;;;;;;;;;;;19.64;38.88;99711.72;1679342;85;20123;-74
2022/10/14 07:53:39;;;;;;;;;;;;;;;19.84;38.51;99704.78;1666025;85;20204;-74
2022/10/14 07:56:05;;;;;;;;;;;;;;;19.93;37.89;99707.47;1676765;85;20441;-75
2022/10/14 07:58:31;;;;;;;;;;;;;;;20.10;37.73;99715.28;1668622;85;20123;-74
2022/10/14 08:00:58;;;;;;;;;;;;;;;20.14;37.39;99705.14;1674323;85;21570;-74
2022/10/14 08:03:25;;;;;;;;;;;;;;;20.16;37.17;99692.23;1690768;85;20116;-74
2022/10/14 08:06:01;;;;;;;;;;;;;;;20.22;36.93;99694.55;1676740;84;20173;-74
2022/10/14 08:08:27;;;;;;;;;;;;;;;20.27;36.68;99679.86;1694911;84;20106;-75
2022/10/14 08:11:02;;;;;;;;;;;;;;;20.33;36.73;99688.94;1675534;84;20098;-75
2022/10/14 08:13:28;;;;;;;;;;;;;;;20.43;36.71;99678.41;1705460;84;21182;-74
2022/10/14 08:15:56;;;;;;;;;;;;;;;20.47;36.49;99688.52;1684062;84;20118;-74
2022/10/14 08:18:22;;;;;;;;;;;;;;;20.42;36.61;99687.55;1663008;85;20130;-74
2022/10/14 08:20:48;;;;;;;;;;;;;;;20.49;36.71;99691.81;1662885;85;20132;-74
2022/10/14 08:23:16;;;;;;;;;;;;;;;20.64;36.22;99684.66;1683571;84;20102;-76
2022/10/14 08:25:43;;;;;;;;;;;;;;;20.80;36.16;99683.48;1671960;84;21317;-75
2022/10/14 08:28:09;;;;;;;;;;;;;;;20.99;36.03;99683.41;1662972;85;20118;-75
2022/10/14 08:30:35;;;;;;;;;;;;;;;21.21;35.46;99692.10;1663204;85;20090;-75
2022/10/14 08:33:02;;;;;;;;;;;;;;;21.30;35.33;99680.41;1663130;85;20523;-76
2022/10/14 08:35:28;;;;;;;;;;;;;;;21.45;35.34;99684.30;1680169;85;20099;-76
2022/10/14 08:37:57;;;;;;;;;;;;;;;21.62;35.36;99680.33;1701321;84;21135;-76
2022/10/14 08:40:23;;;;;;;;;;;;;;;21.86;35.07;99676.57;1690854;84;20123;-76
2022/10/14 08:42:59;;;;;;;;;;;;;;;22.14;34.49;99687.45;1694466;84;20190;-76
2022/10/14 08:45:36;;;;;;;;;;;;;;;22.29;33.79;99677.44;1692782;84;20428;-76
2022/10/14 08:48:11;;;;;;;;;;;;;;;22.05;33.81;99688.91;1663027;85;20172;-74
2022/10/14 08:50:47;;;;;;;;;;;;;;;21.95;33.81;99683.25;1671984;84;21169;-74
2022/10/14 08:53:27;;;;;;;;;;;;;;;21.86;33.94;99684.70;1663369;84;20141;-75
2022/10/14 08:55:59;;;;;;;;;;;;;;;21.71;33.89;99687.57;1700531;84;20446;-75
2022/10/14 08:58:32;;;;;;;;;;;;;;;21.69;34.05;99697.82;1705419;84;20085;-74
2022/10/14 09:01:02;;;;;;;;;;;;;;;21.84;34.06;99688.67;1688392;84;20102;-75
2022/10/14 09:03:32;;;;;;;;;;;;;;;22.09;33.83;99690.06;1681178;85;21179;-74
2022/10/14 09:06:01;;;;;;;;;;;;;;;22.27;33.33;99689.05;1663009;85;20075;-75
2022/10/14 09:08:31;;;;;;;;;;;;;;;22.18;33.39;99682.39;1682242;85;20418;-75
2022/10/14 09:10:58;;;;;;;;;;;;;;;22.27;33.54;99685.52;1682326;85;20082;-75
2022/10/14 09:13:37;;;;;;;;;;;;;;;22.40;33.30;99687.95;1689278;84;20086;-76
2022/10/14 09:16:10;;;;;;;;;;;;;;;22.26;33.28;99698.27;1704330;84;21118;-75
2022/10/14 09:18:42;;;;;;;;;;;;;;;22.13;33.42;99689.86;1671648;84;20123;-76
2022/10/14 09:21:24;;;;;;;;;;;;;;;22.16;33.49;99695.88;1689763;83;20093;-74
2022/10/14 09:23:58;;;;;;;;;;;;;;;22.17;33.75;99688.02;1680526;85;20493;-75
2022/10/14 09:26:27;;;;;;;;;;;;;;;22.41;33.71;99695.02;1665599;85;20130;-74
2022/10/14 09:28:54;;;;;;;;;;;;;;;22.55;33.37;99684.19;1682480;85;21777;-75
2022/10/14 09:31:20;;;;;;;;;;;;;;;22.66;33.39;99684.68;1655356;86;20173;-75
2022/10/14 09:33:46;;;;;;;;;;;;;;;22.93;33.18;99684.36;1688628;84;20424;-73
2022/10/14 09:36:18;;;;;;;;;;;;;;;23.25;32.78;99685.98;1666444;84;20093;-74
2022/10/14 09:38:51;;;;;;;;;;;;;;;23.42;32.52;99684.62;1695740;83;20127;-75
2022/10/14 09:41:17;;;;;;;;;;;;;;;23.64;32.43;99677.37;1721979;83;21915;-76
2022/10/14 09:44:20;;;;;;;;;;;;;;;23.85;31.90;99677.94;1722038;83;20128;-75
2022/10/14 09:46:49;;;;;;;;;;;;;;;24.02;31.66;99678.69;1719757;83;20101;-74
2022/10/14 09:49:18;;;;;;;;;;;;;;;23.92;32.02;99675.84;1718760;83;20098;-75
2022/10/14 09:51:44;;;;;;;;;;;;;;;23.96;32.17;99671.53;1714943;83;20137;-74
2022/10/14 09:54:20;;;;;;;;;;;;;;;24.10;31.93;99672.02;1721198;83;21145;-76
2022/10/14 09:56:48;;;;;;;;;;;;;;;24.36;31.51;99677.50;1672283;84;20122;-75
2022/10/14 09:59:19;;;;;;;;;;;;;;;24.36;31.24;99669.34;1663011;85;20122;-75
2022/10/14 10:01:50;;;;;;;;;;;;;;;24.23;31.49;99675.17;1707717;83;20107;-75
2022/10/14 10:04:43;;;;;;;;;;;;;;;23.95;31.75;99669.91;1702669;83;20125;-75
2022/10/14 10:07:31;;;;;;;;;;;;;;;23.60;31.90;99662.62;1674544;84;21280;-74
2022/10/14 10:09:59;;;;;;;;;;;;;;;22.97;32.79;99667.08;1712282;83;20081;-75
2022/10/14 10:12:33;;;;;;;;;;;;;;;22.43;33.82;99667.97;1716732;83;20114;-74
2022/10/14 10:15:05;;;;;;;;;;;;;;;22.13;34.25;99675.52;1702800;83;20416;-74
2022/10/14 10:17:31;;;;;;;;;;;;;;;21.71;34.86;99658.62;1681514;85;20125;-74
2022/10/14 10:20:08;;;;;;;;;;;;;;;21.49;35.27;99651.63;1682704;85;21155;-74
2022/10/14 10:22:37;;;;;;;;;;;;;;;21.34;35.73;99648.59;1684528;85;20094;-75
2022/10/14 10:25:10;;;;;;;;;;;;;;;21.34;36.20;99648.59;1697749;84;20471;-74
2022/10/14 10:27:40;;;;;;;;;;;;;;;21.41;36.00;99656.56;1697615;84;20122;-74
2022/10/14 10:30:27;;;;;;;;;;;;;;;21.47;35.54;99647.52;1696895;84;20102;-75
2022/10/14 10:32:59;;;;;;;;;;;;;;;21.42;35.62;99648.23;1697749;84;20151;-75
2022/10/14 10:35:57;;;;;;;;;;;;;;;21.43;35.58;99646.36;1697648;84;20102;-74
2022/10/14 10:38:26;;;;;;;;;;;;;;;21.36;35.75;99651.04;1669045;85;20496;-75
2022/10/14 10:41:16;;;;;;;;;;;;;;;21.16;35.86;99651.92;1685467;84;20199;-75
2022/10/14 10:43:53;;;;;;;;;;;;;;;21.09;36.08;99635.00;1677796;85;20434;-75
2022/10/14 10:46:46;;;;;;;;;;;;;;;20.88;36.45;99653.38;1670191;84;21199;-75
2022/10/14 10:49:18;;;;;;;;;;;;;;;20.59;36.77;99639.41;1662194;85;20100;-75
2022/10/14 10:51:56;;;;;;;;;;;;;;;20.32;37.32;99647.59;1684088;84;20105;-74
2022/10/14 10:54:43;;;;;;;;;;;;;;;20.07;37.71;99649.56;1685517;85;20153;-75
2022/10/14 10:57:14;;;;;;;;;;;;;;;19.90;38.22;99647.16;1685585;85;20103;-74
2022/10/14 11:00:00;;;;;;;;;;;;;;;19.84;38.29;99641.34;1684811;85;21808;-75
2022/10/14 11:02:53;;;;;;;;;;;;;;;19.68;38.58;99635.47;1714413;83;20097;-74
2022/10/14 11:05:41;;;;;;;;;;;;;;;19.57;39.06;99630.84;1714197;83;20415;-75
2022/10/14 11:14:29;;;;;;;;;;;;;;;19.36;39.27;99623.16;1684007;85;21156;-74
2022/10/14 11:17:04;;;;;;;;;;;;;;;19.32;39.36;99621.94;1685506;84;20124;-74
2022/10/14 11:19:53;;;;;;;;;;;;;;;19.29;39.42;99627.80;1659825;85;20160;-75
2022/10/14 11:22:40;;;;;;;;;;;;;;;19.29;39.48;99630.50;1685370;85;20153;-75
2022/10/14 11:25:23;;;;;;;;;;;;;;;19.27;39.62;99642.01;1676926;85;20092;-74
2022/10/14 11:28:10;;;;;;;;;;;;;;;19.22;39.54;99622.14;1676855;85;21596;-74
2022/10/14 11:30:42;;;;;;;;;;;;;;;19.11;39.68;99631.78;1676820;85;20422;-75
2022/10/14 11:33:28;;;;;;;;;;;;;;;19.04;40.08;99625.64;1676923;85;20092;-75
2022/10/14 11:35:58;;;;;;;;;;;;;;;19.00;40.47;99635.22;1676873;85;20124;-74
2022/10/14 11:38:50;;;;;;;;;;;;;;;18.94;40.56;99613.19;1676852;85;20127;-75
2022/10/14 11:41:35;;;;;;;;;;;;;;;18.92;40.64;99611.23;1676883;85;21156;-74
2022/10/14 11:44:11;;;;;;;;;;;;;;;18.92;40.80;99608.03;1662349;85;20126;-75
2022/10/14 11:46:41;;;;;;;;;;;;;;;18.98;40.94;99622.50;1659896;85;20089;-75
2022/10/14 11:49:14;;;;;;;;;;;;;;;19.02;40.75;99607.52;1659995;85;20158;-75
2022/10/14 11:51:50;;;;;;;;;;;;;;;19.02;40.84;99614.25;1659784;85;20452;-76
2022/10/14 11:54:39;;;;;;;;;;;;;;;18.90;41.08;99590.42;1660066;85;21195;-75
2022/10/14 11:57:18;;;;;;;;;;;;;;;18.79;41.56;99598.70;1659844;85;20102;-75
2022/10/14 12:00:07;;;;;;;;;;;;;;;18.63;41.98;99598.41;1660087;85;20428;-76
2022/10/14 12:02:45;;;;;;;;;;;;;;;18.47;42.33;99587.14;1656378;85;20111;-74
2022/10/14 12:05:19;;;;;;;;;;;;;;;18.38;42.47;99591.09;1660004;85;20098;-74
2022/10/14 12:07:55;;;;;;;;;;;;;;;18.32;42.78;99595.19;1660011;85;21140;-75
2022/10/14 12:10:26;;;;;;;;;;;;;;;18.24;43.01;99592.23;1633565;85;20140;-74
2022/10/14 12:12:53;;;;;;;;;;;;;;;18.20;43.13;99592.86;1659900;85;20137;-75
2022/10/14 12:15:21;;;;;;;;;;;;;;;18.18;43.30;99601.17;1659871;85;20089;-75
2022/10/14 12:17:51;;;;;;;;;;;;;;;18.14;43.37;99599.97;1659962;85;20444;-75
2022/10/14 12:20:32;;;;;;;;;;;;;;;18.08;43.52;99587.88;1659861;85;21150;-75
2022/10/14 12:22:59;;;;;;;;;;;;;;;18.02;43.66;99577.44;1665869;85;20100;-75
2022/10/14 12:25:27;;;;;;;;;;;;;;;17.99;43.92;99580.56;1672663;86;20164;-75
2022/10/14 12:27:54;;;;;;;;;;;;;;;17.96;44.05;99583.70;1672664;85;20179;-75
2022/10/14 12:30:36;;;;;;;;;;;;;;;17.98;44.20;99582.14;1672674;85;20128;-75
2022/10/14 12:33:07;;;;;;;;;;;;;;;17.94;44.32;99576.89;1672846;85;21230;-74
2022/10/14 12:35:51;;;;;;;;;;;;;;;17.82;44.64;99580.77;1672783;86;20124;-75
2022/10/14 12:38:19;;;;;;;;;;;;;;;17.67;44.82;99573.49;1672669;86;20246;-75
2022/10/14 12:40:48;;;;;;;;;;;;;;;17.52;44.93;99572.91;1672681;85;20155;-74
2022/10/14 12:43:23;;;;;;;;;;;;;;;17.40;45.11;99592.06;1672557;85;20102;-74
2022/10/14 12:45:59;;;;;;;;;;;;;;;17.26;45.46;99576.47;1672615;85;21173;-73
2022/10/14 12:48:26;;;;;;;;;;;;;;;17.17;45.73;99585.81;1672663;85;20110;-74
2022/10/14 12:51:08;;;;;;;;;;;;;;;17.09;46.03;99580.15;1671907;85;20200;-76
2022/10/14 12:53:35;;;;;;;;;;;;;;;17.07;46.28;99587.60;1669566;85;20124;-75
2022/10/14 12:56:03;;;;;;;;;;;;;;;17.03;46.55;99576.95;1682360;85;20099;-75
2022/10/14 12:58:37;;;;;;;;;;;;;;;16.99;46.71;99579.76;1683277;85;21163;-75
2022/10/14 13:01:07;;;;;;;;;;;;;;;16.99;46.75;99582.44;1684067;85;20128;-75
2022/10/14 13:03:37;;;;;;;;;;;;;;;16.91;47.09;99584.00;1682263;85;20131;-74
2022/10/14 13:06:28;;;;;;;;;;;;;;;16.88;47.17;99583.06;1655086;86;20157;-75
2022/10/14 13:09:15;;;;;;;;;;;;;;;16.86;47.37;99585.66;1646597;86;20179;-75
2022/10/14 13:11:45;;;;;;;;;;;;;;;16.83;47.55;99575.32;1672700;85;20142;-74
2022/10/14 13:14:22;;;;;;;;;;;;;;;16.84;47.85;99575.09;1672499;86;20175;-76
2022/10/14 13:16:54;;;;;;;;;;;;;;;16.89;47.97;99567.27;1667219;86;20134;-75